KLM1412 LFPG-EGLL
Flight info
| Callsign | KLM1412 |
|---|---|
| Flight time | 0h 47m |
| Altitude | 24000 |
| Route | OPALE6G/09R OPALE DCT KESAX DCT DIMAL DCT ALESO |
| Aircraft | B738/M-SDE2E3FGHIRWXY/LB1 |
Departure
| Time | 2026-05-08 20:26 |
|---|---|
| Airport | Charles de Gaulle International Airport (LFPG) |
Arrival
| Time | 2026-05-08 21:14 |
|---|---|
| Airport | London Heathrow Airport (EGLL) |
| Time | Latitude | Longitude | Altitude | Speed | Heading |
|---|---|---|---|---|---|
| 2026-05-08 20:13 | 49.00785 | 2.56169 | 353 ft | 8 kts | 265° |
| 2026-05-08 20:13 | 49.00779 | 2.56088 | 362 ft | 7 kts | 261° |
| 2026-05-08 20:13 | 49.00773 | 2.56021 | 356 ft | 6 kts | 261° |
| 2026-05-08 20:14 | 49.00765 | 2.55940 | 360 ft | 10 kts | 262° |
| 2026-05-08 20:14 | 49.00755 | 2.55819 | 353 ft | 12 kts | 262° |
| 2026-05-08 20:14 | 49.00744 | 2.55696 | 355 ft | 12 kts | 262° |
| 2026-05-08 20:14 | 49.00734 | 2.55575 | 360 ft | 11 kts | 262° |
| 2026-05-08 20:15 | 49.00726 | 2.55458 | 353 ft | 11 kts | 267° |
| 2026-05-08 20:15 | 49.00752 | 2.55354 | 357 ft | 11 kts | 318° |
| 2026-05-08 20:15 | 49.00825 | 2.55308 | 353 ft | 11 kts | 342° |
| 2026-05-08 20:15 | 49.00900 | 2.55277 | 356 ft | 11 kts | 345° |
| 2026-05-08 20:16 | 49.00958 | 2.55252 | 356 ft | 7 kts | 344° |
| 2026-05-08 20:16 | 49.01003 | 2.55232 | 355 ft | 7 kts | 344° |
| 2026-05-08 20:16 | 49.01060 | 2.55207 | 362 ft | 11 kts | 343° |
| 2026-05-08 20:16 | 49.01151 | 2.55166 | 361 ft | 16 kts | 344° |
| 2026-05-08 20:17 | 49.01262 | 2.55119 | 356 ft | 16 kts | 346° |
| 2026-05-08 20:17 | 49.01371 | 2.55144 | 360 ft | 16 kts | 18° |
| 2026-05-08 20:17 | 49.01475 | 2.55167 | 357 ft | 15 kts | 1° |
| 2026-05-08 20:17 | 49.01580 | 2.55157 | 356 ft | 16 kts | 356° |
| 2026-05-08 20:18 | 49.01697 | 2.55146 | 353 ft | 18 kts | 356° |
| 2026-05-08 20:18 | 49.01822 | 2.55129 | 356 ft | 17 kts | 341° |
| 2026-05-08 20:18 | 49.01854 | 2.54974 | 353 ft | 16 kts | 265° |
| 2026-05-08 20:18 | 49.01845 | 2.54809 | 359 ft | 16 kts | 265° |
| 2026-05-08 20:19 | 49.01836 | 2.54647 | 353 ft | 15 kts | 266° |
| 2026-05-08 20:19 | 49.01829 | 2.54491 | 360 ft | 15 kts | 266° |
| 2026-05-08 20:19 | 49.01820 | 2.54313 | 357 ft | 19 kts | 265° |
| 2026-05-08 20:19 | 49.01808 | 2.54101 | 353 ft | 20 kts | 265° |
| 2026-05-08 20:20 | 49.01797 | 2.53889 | 353 ft | 20 kts | 265° |
| 2026-05-08 20:20 | 49.01787 | 2.53684 | 360 ft | 19 kts | 264° |
| 2026-05-08 20:20 | 49.01775 | 2.53472 | 361 ft | 22 kts | 266° |
| 2026-05-08 20:20 | 49.01761 | 2.53235 | 354 ft | 22 kts | 264° |
| 2026-05-08 20:21 | 49.01749 | 2.53007 | 355 ft | 22 kts | 266° |
| 2026-05-08 20:21 | 49.01738 | 2.52783 | 359 ft | 21 kts | 265° |
| 2026-05-08 20:21 | 49.01726 | 2.52565 | 355 ft | 20 kts | 265° |
| 2026-05-08 20:21 | 49.01715 | 2.52356 | 359 ft | 19 kts | 265° |
| 2026-05-08 20:22 | 49.01718 | 2.52192 | 361 ft | 13 kts | 301° |
| 2026-05-08 20:22 | 49.01787 | 2.52144 | 355 ft | 10 kts | 352° |
| 2026-05-08 20:22 | 49.01852 | 2.52131 | 358 ft | 6 kts | 353° |
| 2026-05-08 20:22 | 49.01870 | 2.52128 | 353 ft | 2 kts | 354° |
| 2026-05-08 20:23 | 49.01876 | 2.52127 | 355 ft | 1 kts | 354° |
| 2026-05-08 20:23 | 49.01900 | 2.52123 | 353 ft | 7 kts | 355° |
| 2026-05-08 20:23 | 49.01952 | 2.52117 | 360 ft | 8 kts | 355° |
| 2026-05-08 20:23 | 49.01988 | 2.52112 | 355 ft | 5 kts | 355° |
| 2026-05-08 20:24 | 49.02030 | 2.52107 | 355 ft | 8 kts | 356° |
| 2026-05-08 20:24 | 49.02099 | 2.52141 | 356 ft | 12 kts | 51° |
| 2026-05-08 20:24 | 49.02111 | 2.52208 | 352 ft | 0 kts | 85° |
| 2026-05-08 20:25 | 49.02112 | 2.52211 | 352 ft | 3 kts | 85° |
| 2026-05-08 20:26 | 49.02126 | 2.52461 | 355 ft | 55 kts | 85° |
| 2026-05-08 20:26 | 49.02178 | 2.53420 | 360 ft | 123 kts | 85° |
| 2026-05-08 20:26 | 49.02270 | 2.54961 | 533 ft | 158 kts | 85° |
| 2026-05-08 20:26 | 49.02325 | 2.56659 | 1288 ft | 159 kts | 88° |
| 2026-05-08 20:27 | 49.02402 | 2.58420 | 1799 ft | 182 kts | 85° |
| 2026-05-08 20:27 | 49.02520 | 2.60469 | 2043 ft | 206 kts | 84° |
| 2026-05-08 20:27 | 49.02656 | 2.62742 | 2360 ft | 221 kts | 84° |
| 2026-05-08 20:27 | 49.02794 | 2.65106 | 2841 ft | 230 kts | 84° |
| 2026-05-08 20:28 | 49.02934 | 2.67612 | 3171 ft | 249 kts | 85° |
| 2026-05-08 20:28 | 49.03073 | 2.70308 | 3648 ft | 259 kts | 85° |
| 2026-05-08 20:28 | 49.03280 | 2.73030 | 4461 ft | 258 kts | 75° |
| 2026-05-08 20:28 | 49.04149 | 2.75438 | 5013 ft | 268 kts | 44° |
| 2026-05-08 20:29 | 49.05765 | 2.76799 | 5733 ft | 268 kts | 13° |
| 2026-05-08 20:29 | 49.07642 | 2.76815 | 6379 ft | 277 kts | 346° |
| 2026-05-08 20:29 | 49.09433 | 2.75723 | 7105 ft | 278 kts | 332° |
| 2026-05-08 20:29 | 49.11123 | 2.74234 | 7775 ft | 283 kts | 327° |
| 2026-05-08 20:30 | 49.12789 | 2.72613 | 8523 ft | 284 kts | 326° |
| 2026-05-08 20:30 | 49.14462 | 2.70968 | 9270 ft | 288 kts | 326° |
| 2026-05-08 20:30 | 49.16174 | 2.69324 | 9873 ft | 294 kts | 327° |
| 2026-05-08 20:30 | 49.17937 | 2.67675 | 9967 ft | 299 kts | 327° |
| 2026-05-08 20:31 | 49.19699 | 2.66031 | 10034 ft | 293 kts | 327° |
| 2026-05-08 20:31 | 49.21427 | 2.64426 | 10059 ft | 287 kts | 328° |
| 2026-05-08 20:31 | 49.23107 | 2.62820 | 10053 ft | 283 kts | 325° |
| 2026-05-08 20:31 | 49.24726 | 2.61094 | 10065 ft | 286 kts | 324° |
| 2026-05-08 20:32 | 49.26367 | 2.59290 | 10127 ft | 295 kts | 323° |
| 2026-05-08 20:32 | 49.28076 | 2.57406 | 10358 ft | 311 kts | 323° |
| 2026-05-08 20:32 | 49.29901 | 2.55401 | 10538 ft | 333 kts | 324° |
| 2026-05-08 20:32 | 49.31806 | 2.53303 | 11111 ft | 339 kts | 323° |
| 2026-05-08 20:33 | 49.33734 | 2.51174 | 11792 ft | 344 kts | 322° |
| 2026-05-08 20:33 | 49.35686 | 2.49016 | 12483 ft | 348 kts | 323° |
| 2026-05-08 20:33 | 49.37665 | 2.46830 | 13198 ft | 353 kts | 323° |
| 2026-05-08 20:33 | 49.39676 | 2.44621 | 13922 ft | 358 kts | 323° |
| 2026-05-08 20:34 | 49.41710 | 2.42390 | 14595 ft | 361 kts | 322° |
| 2026-05-08 20:34 | 49.43758 | 2.40129 | 15322 ft | 364 kts | 322° |
| 2026-05-08 20:34 | 49.47945 | 2.35522 | 16524 ft | 377 kts | 322° |
| 2026-05-08 20:35 | 49.50078 | 2.33164 | 17347 ft | 377 kts | 322° |
| 2026-05-08 20:35 | 49.52200 | 2.30806 | 18162 ft | 377 kts | 322° |
| 2026-05-08 20:35 | 49.54340 | 2.28424 | 18777 ft | 381 kts | 322° |
| 2026-05-08 20:35 | 49.56469 | 2.26054 | 19410 ft | 383 kts | 322° |
| 2026-05-08 20:36 | 49.58620 | 2.23661 | 20204 ft | 380 kts | 322° |
| 2026-05-08 20:36 | 49.60754 | 2.21288 | 21023 ft | 377 kts | 322° |
| 2026-05-08 20:36 | 49.62877 | 2.18925 | 21765 ft | 376 kts | 322° |
| 2026-05-08 20:36 | 49.65002 | 2.16557 | 22473 ft | 376 kts | 322° |
| 2026-05-08 20:37 | 49.67148 | 2.14162 | 23222 ft | 376 kts | 322° |
| 2026-05-08 20:37 | 49.69236 | 2.11830 | 23873 ft | 376 kts | 322° |
| 2026-05-08 20:37 | 49.71374 | 2.09435 | 24040 ft | 384 kts | 321° |
| 2026-05-08 20:37 | 49.73560 | 2.06979 | 24054 ft | 378 kts | 322° |
| 2026-05-08 20:38 | 49.75660 | 2.04633 | 24061 ft | 368 kts | 322° |
| 2026-05-08 20:38 | 49.77710 | 2.02341 | 24075 ft | 369 kts | 322° |
| 2026-05-08 20:38 | 49.79798 | 1.99997 | 24080 ft | 374 kts | 322° |
| 2026-05-08 20:38 | 49.81918 | 1.97615 | 24082 ft | 379 kts | 322° |
| 2026-05-08 20:39 | 49.84055 | 1.95211 | 24077 ft | 380 kts | 322° |
| 2026-05-08 20:39 | 49.86188 | 1.92806 | 24069 ft | 379 kts | 322° |
| 2026-05-08 20:39 | 49.88313 | 1.90409 | 24068 ft | 376 kts | 322° |
| 2026-05-08 20:39 | 49.90422 | 1.88026 | 24071 ft | 374 kts | 321° |
| 2026-05-08 20:40 | 49.92478 | 1.85565 | 24072 ft | 372 kts | 319° |
| 2026-05-08 20:40 | 49.94495 | 1.83059 | 24077 ft | 371 kts | 319° |
| 2026-05-08 20:40 | 49.96507 | 1.80541 | 24081 ft | 371 kts | 319° |
| 2026-05-08 20:40 | 49.98519 | 1.78032 | 24079 ft | 371 kts | 319° |
| 2026-05-08 20:41 | 50.00535 | 1.75530 | 24079 ft | 371 kts | 319° |
| 2026-05-08 20:41 | 50.02559 | 1.73025 | 24078 ft | 372 kts | 320° |
| 2026-05-08 20:41 | 50.04582 | 1.70522 | 24077 ft | 372 kts | 320° |
| 2026-05-08 20:41 | 50.05923 | 1.68863 | 24080 ft | 372 kts | 320° |
| 2026-05-08 20:42 | 50.08070 | 1.66600 | 24063 ft | 375 kts | 330° |
| 2026-05-08 20:42 | 50.10423 | 1.64828 | 24086 ft | 376 kts | 333° |
| 2026-05-08 20:42 | 50.12805 | 1.63137 | 24075 ft | 377 kts | 334° |
| 2026-05-08 20:42 | 50.15194 | 1.61456 | 24081 ft | 377 kts | 334° |
| 2026-05-08 20:43 | 50.17586 | 1.59760 | 24083 ft | 377 kts | 334° |
| 2026-05-08 20:43 | 50.19971 | 1.58052 | 24087 ft | 377 kts | 333° |
| 2026-05-08 20:43 | 50.22355 | 1.56332 | 24084 ft | 378 kts | 333° |
| 2026-05-08 20:43 | 50.24737 | 1.54603 | 24075 ft | 378 kts | 333° |
| 2026-05-08 20:44 | 50.27122 | 1.52866 | 24084 ft | 378 kts | 333° |
| 2026-05-08 20:44 | 50.29501 | 1.51130 | 24083 ft | 378 kts | 333° |
| 2026-05-08 20:44 | 50.31885 | 1.49388 | 24070 ft | 378 kts | 333° |
| 2026-05-08 20:44 | 50.34264 | 1.47647 | 24088 ft | 378 kts | 333° |
| 2026-05-08 20:45 | 50.36643 | 1.45904 | 24080 ft | 378 kts | 333° |
| 2026-05-08 20:45 | 50.39022 | 1.44159 | 24077 ft | 378 kts | 333° |
| 2026-05-08 20:45 | 50.41404 | 1.42411 | 24086 ft | 378 kts | 333° |
| 2026-05-08 20:45 | 50.43780 | 1.40666 | 24075 ft | 377 kts | 333° |
| 2026-05-08 20:46 | 50.46157 | 1.38918 | 24082 ft | 377 kts | 333° |
| 2026-05-08 20:46 | 50.48487 | 1.37025 | 24070 ft | 376 kts | 326° |
| 2026-05-08 20:46 | 50.50564 | 1.34555 | 24086 ft | 374 kts | 315° |
| 2026-05-08 20:46 | 50.52356 | 1.31596 | 24095 ft | 373 kts | 310° |
| 2026-05-08 20:47 | 50.54087 | 1.28560 | 24082 ft | 373 kts | 310° |
| 2026-05-08 20:47 | 50.55830 | 1.25536 | 24080 ft | 373 kts | 311° |
| 2026-05-08 20:47 | 50.57585 | 1.22526 | 24085 ft | 373 kts | 311° |
| 2026-05-08 20:47 | 50.59380 | 1.19573 | 24090 ft | 374 kts | 313° |
| 2026-05-08 20:48 | 50.61220 | 1.16673 | 24097 ft | 374 kts | 314° |
| 2026-05-08 20:48 | 50.63068 | 1.13793 | 24087 ft | 374 kts | 314° |
| 2026-05-08 20:48 | 50.64910 | 1.10918 | 24094 ft | 370 kts | 314° |
| 2026-05-08 20:48 | 50.66706 | 1.08102 | 24000 ft | 359 kts | 314° |
| 2026-05-08 20:49 | 50.68461 | 1.05336 | 23776 ft | 354 kts | 313° |
| 2026-05-08 20:49 | 50.70190 | 1.02599 | 23437 ft | 351 kts | 313° |
| 2026-05-08 20:49 | 50.71901 | 0.99885 | 23105 ft | 347 kts | 313° |
| 2026-05-08 20:49 | 50.73595 | 0.97192 | 22752 ft | 344 kts | 313° |
| 2026-05-08 20:50 | 50.75272 | 0.94521 | 22429 ft | 341 kts | 313° |
| 2026-05-08 20:50 | 50.76939 | 0.91864 | 22087 ft | 339 kts | 313° |
| 2026-05-08 20:50 | 50.78591 | 0.89228 | 21754 ft | 336 kts | 313° |
| 2026-05-08 20:50 | 50.80230 | 0.86609 | 21425 ft | 334 kts | 313° |
| 2026-05-08 20:51 | 50.81859 | 0.84007 | 21101 ft | 332 kts | 313° |
| 2026-05-08 20:51 | 50.83478 | 0.81416 | 20766 ft | 330 kts | 313° |
| 2026-05-08 20:51 | 50.85091 | 0.78832 | 20345 ft | 332 kts | 313° |
| 2026-05-08 20:51 | 50.86716 | 0.76225 | 19919 ft | 333 kts | 313° |
| 2026-05-08 20:52 | 50.88339 | 0.73620 | 19597 ft | 331 kts | 313° |
| 2026-05-08 20:52 | 50.89952 | 0.71029 | 19280 ft | 329 kts | 313° |
| 2026-05-08 20:52 | 50.91554 | 0.68453 | 18951 ft | 327 kts | 313° |
| 2026-05-08 20:52 | 50.93151 | 0.65884 | 18623 ft | 326 kts | 313° |
| 2026-05-08 20:53 | 50.94738 | 0.63327 | 18294 ft | 325 kts | 313° |
| 2026-05-08 20:53 | 50.96317 | 0.60780 | 17939 ft | 323 kts | 313° |
| 2026-05-08 20:53 | 50.97885 | 0.58247 | 17594 ft | 321 kts | 313° |
| 2026-05-08 20:53 | 50.99445 | 0.55726 | 17255 ft | 319 kts | 313° |
| 2026-05-08 20:54 | 51.01006 | 0.53198 | 16735 ft | 324 kts | 313° |
| 2026-05-08 20:54 | 51.02598 | 0.50620 | 16218 ft | 327 kts | 313° |
| 2026-05-08 20:54 | 51.04192 | 0.48035 | 15706 ft | 329 kts | 313° |
| 2026-05-08 20:54 | 51.05800 | 0.45426 | 15197 ft | 330 kts | 312° |
| 2026-05-08 20:55 | 51.07406 | 0.42839 | 14703 ft | 327 kts | 314° |
| 2026-05-08 20:55 | 51.09027 | 0.40354 | 14456 ft | 317 kts | 315° |
| 2026-05-08 20:55 | 51.10592 | 0.37994 | 14275 ft | 305 kts | 314° |
| 2026-05-08 20:55 | 51.12121 | 0.35681 | 13917 ft | 302 kts | 315° |
| 2026-05-08 20:56 | 51.13632 | 0.33387 | 13486 ft | 299 kts | 314° |
| 2026-05-08 20:56 | 51.15132 | 0.31102 | 13030 ft | 297 kts | 314° |
| 2026-05-08 20:56 | 51.16628 | 0.28815 | 12497 ft | 298 kts | 314° |
| 2026-05-08 20:56 | 51.18129 | 0.26514 | 11933 ft | 300 kts | 314° |
| 2026-05-08 20:57 | 51.19621 | 0.24224 | 11369 ft | 303 kts | 314° |
| 2026-05-08 20:57 | 51.21141 | 0.21893 | 10807 ft | 305 kts | 314° |
| 2026-05-08 20:57 | 51.22693 | 0.19510 | 10244 ft | 306 kts | 314° |
| 2026-05-08 20:57 | 51.24213 | 0.17174 | 9685 ft | 308 kts | 314° |
| 2026-05-08 20:58 | 51.25759 | 0.14794 | 9082 ft | 309 kts | 314° |
| 2026-05-08 20:58 | 51.27304 | 0.12415 | 8490 ft | 309 kts | 314° |
| 2026-05-08 20:58 | 51.28748 | 0.09881 | 7908 ft | 307 kts | 299° |
| 2026-05-08 20:58 | 51.29540 | 0.06785 | 7484 ft | 299 kts | 283° |
| 2026-05-08 20:59 | 51.30052 | 0.03600 | 7182 ft | 290 kts | 281° |
| 2026-05-08 20:59 | 51.30510 | 0.00542 | 7093 ft | 276 kts | 281° |
| 2026-05-08 20:59 | 51.30937 | -0.02357 | 7074 ft | 260 kts | 281° |
| 2026-05-08 20:59 | 51.31357 | -0.05082 | 7072 ft | 245 kts | 281° |
| 2026-05-08 21:00 | 51.31772 | -0.07674 | 7072 ft | 238 kts | 281° |
| 2026-05-08 21:00 | 51.32185 | -0.10243 | 7079 ft | 239 kts | 281° |
| 2026-05-08 21:00 | 51.32599 | -0.12817 | 7088 ft | 239 kts | 281° |
| 2026-05-08 21:00 | 51.33014 | -0.15390 | 7107 ft | 239 kts | 281° |
| 2026-05-08 21:01 | 51.33428 | -0.17965 | 7099 ft | 239 kts | 281° |
| 2026-05-08 21:01 | 51.33838 | -0.20544 | 7102 ft | 239 kts | 281° |
| 2026-05-08 21:01 | 51.34242 | -0.23122 | 7102 ft | 239 kts | 281° |
| 2026-05-08 21:01 | 51.34612 | -0.25709 | 7102 ft | 238 kts | 272° |
| 2026-05-08 21:02 | 51.34622 | -0.28329 | 7110 ft | 235 kts | 265° |
| 2026-05-08 21:02 | 51.34579 | -0.30948 | 7095 ft | 236 kts | 266° |
| 2026-05-08 21:02 | 51.34540 | -0.33572 | 7102 ft | 236 kts | 266° |
| 2026-05-08 21:02 | 51.34501 | -0.36199 | 7102 ft | 236 kts | 266° |
| 2026-05-08 21:03 | 51.34461 | -0.38829 | 7097 ft | 237 kts | 265° |
| 2026-05-08 21:03 | 51.34422 | -0.41462 | 7106 ft | 237 kts | 265° |
| 2026-05-08 21:03 | 51.34384 | -0.44099 | 7101 ft | 238 kts | 266° |
| 2026-05-08 21:03 | 51.34344 | -0.46745 | 7105 ft | 238 kts | 266° |
| 2026-05-08 21:04 | 51.34305 | -0.49397 | 7097 ft | 239 kts | 266° |
| 2026-05-08 21:04 | 51.34265 | -0.52052 | 7103 ft | 239 kts | 266° |
| 2026-05-08 21:04 | 51.34225 | -0.54706 | 7095 ft | 239 kts | 265° |
| 2026-05-08 21:04 | 51.34183 | -0.57357 | 7101 ft | 238 kts | 266° |
| 2026-05-08 21:05 | 51.34142 | -0.60007 | 7094 ft | 238 kts | 266° |
| 2026-05-08 21:05 | 51.34101 | -0.62654 | 7095 ft | 238 kts | 266° |
| 2026-05-08 21:05 | 51.34060 | -0.65279 | 7022 ft | 234 kts | 265° |
| 2026-05-08 21:05 | 51.34023 | -0.67767 | 6716 ft | 234 kts | 265° |
| 2026-05-08 21:06 | 51.33986 | -0.70369 | 6366 ft | 235 kts | 265° |
| 2026-05-08 21:06 | 51.33948 | -0.72985 | 6056 ft | 235 kts | 265° |
| 2026-05-08 21:06 | 51.33911 | -0.75591 | 5695 ft | 235 kts | 265° |
| 2026-05-08 21:06 | 51.34046 | -0.78200 | 5332 ft | 240 kts | 286° |
| 2026-05-08 21:07 | 51.34966 | -0.80428 | 4995 ft | 244 kts | 319° |
| 2026-05-08 21:07 | 51.36483 | -0.81607 | 4724 ft | 243 kts | 347° |
| 2026-05-08 21:07 | 51.38088 | -0.82106 | 4674 ft | 227 kts | 350° |
| 2026-05-08 21:07 | 51.39592 | -0.82520 | 4552 ft | 212 kts | 350° |
| 2026-05-08 21:08 | 51.41005 | -0.82903 | 4359 ft | 202 kts | 351° |
| 2026-05-08 21:08 | 51.42389 | -0.83286 | 4068 ft | 200 kts | 351° |
| 2026-05-08 21:08 | 51.43748 | -0.83336 | 3784 ft | 195 kts | 20° |
| 2026-05-08 21:08 | 51.44827 | -0.82156 | 3559 ft | 189 kts | 53° |
| 2026-05-08 21:09 | 51.45665 | -0.80502 | 3335 ft | 192 kts | 55° |
| 2026-05-08 21:09 | 51.46489 | -0.78813 | 3081 ft | 191 kts | 55° |
| 2026-05-08 21:09 | 51.47280 | -0.77155 | 2972 ft | 182 kts | 61° |
| 2026-05-08 21:09 | 51.47610 | -0.75313 | 2968 ft | 168 kts | 91° |
| 2026-05-08 21:10 | 51.47658 | -0.73477 | 2966 ft | 160 kts | 91° |
| 2026-05-08 21:10 | 51.47692 | -0.71727 | 2922 ft | 157 kts | 92° |
| 2026-05-08 21:10 | 51.47704 | -0.69944 | 2751 ft | 163 kts | 92° |
| 2026-05-08 21:10 | 51.47709 | -0.68108 | 2533 ft | 165 kts | 93° |
| 2026-05-08 21:11 | 51.47711 | -0.66305 | 2307 ft | 160 kts | 92° |
| 2026-05-08 21:11 | 51.47714 | -0.64582 | 2092 ft | 151 kts | 92° |
| 2026-05-08 21:11 | 51.47717 | -0.62916 | 1899 ft | 148 kts | 93° |
| 2026-05-08 21:11 | 51.47719 | -0.61281 | 1702 ft | 147 kts | 92° |
| 2026-05-08 21:12 | 51.47721 | -0.59639 | 1506 ft | 148 kts | 91° |
| 2026-05-08 21:12 | 51.47726 | -0.57974 | 1301 ft | 149 kts | 92° |
| 2026-05-08 21:12 | 51.47728 | -0.56313 | 1108 ft | 149 kts | 91° |
| 2026-05-08 21:12 | 51.47728 | -0.54645 | 905 ft | 149 kts | 92° |
| 2026-05-08 21:13 | 51.47739 | -0.53001 | 732 ft | 147 kts | 91° |
| 2026-05-08 21:13 | 51.47748 | -0.51336 | 508 ft | 151 kts | 93° |
| 2026-05-08 21:13 | 51.47750 | -0.49658 | 257 ft | 150 kts | 92° |
| 2026-05-08 21:13 | 51.47757 | -0.48013 | 99 ft | 145 kts | 94° |
| 2026-05-08 21:14 | 51.47754 | -0.46554 | 92 ft | 112 kts | 90° |
| 2026-05-08 21:14 | 51.47761 | -0.45623 | 83 ft | 43 kts | 89° |
| 2026-05-08 21:14 | 51.47745 | -0.45234 | 89 ft | 21 kts | 123° |
| 2026-05-08 21:14 | 51.47646 | -0.45180 | 88 ft | 9 kts | 175° |
| 2026-05-08 21:15 | 51.47627 | -0.45178 | 90 ft | 0 kts | 175° |
| 2026-05-08 21:15 | 51.47626 | -0.45178 | 90 ft | 0 kts | 175° |
| 2026-05-08 21:15 | 51.47624 | -0.45178 | 88 ft | 2 kts | 174° |
| 2026-05-08 21:16 | 51.47600 | -0.45136 | 88 ft | 7 kts | 103° |
| 2026-05-08 21:16 | 51.47598 | -0.45047 | 88 ft | 9 kts | 91° |
| 2026-05-08 21:16 | 51.47599 | -0.44938 | 89 ft | 10 kts | 89° |
| 2026-05-08 21:16 | 51.47600 | -0.44806 | 89 ft | 12 kts | 89° |
| 2026-05-08 21:17 | 51.47581 | -0.44691 | 90 ft | 12 kts | 135° |
| 2026-05-08 21:17 | 51.47502 | -0.44610 | 84 ft | 14 kts | 137° |
| 2026-05-08 21:17 | 51.47417 | -0.44560 | 84 ft | 13 kts | 177° |
| 2026-05-08 21:17 | 51.47328 | -0.44559 | 84 ft | 13 kts | 179° |
| 2026-05-08 21:18 | 51.47240 | -0.44557 | 84 ft | 12 kts | 179° |
| 2026-05-08 21:18 | 51.47155 | -0.44557 | 84 ft | 12 kts | 180° |
| 2026-05-08 21:18 | 51.47072 | -0.44557 | 84 ft | 12 kts | 181° |
| 2026-05-08 21:18 | 51.46991 | -0.44558 | 84 ft | 11 kts | 180° |
| 2026-05-08 21:19 | 51.46912 | -0.44557 | 84 ft | 12 kts | 179° |
| 2026-05-08 21:19 | 51.46823 | -0.44556 | 84 ft | 14 kts | 180° |
| 2026-05-08 21:19 | 51.46722 | -0.44557 | 84 ft | 15 kts | 179° |
| 2026-05-08 21:19 | 51.46669 | -0.44442 | 85 ft | 14 kts | 91° |
| 2026-05-08 21:20 | 51.46668 | -0.44267 | 83 ft | 18 kts | 91° |
| 2026-05-08 21:20 | 51.46659 | -0.44094 | 86 ft | 12 kts | 118° |
| 2026-05-08 21:20 | 51.46621 | -0.44061 | 82 ft | 0 kts | 175° |
| 2026-05-08 21:22 | 51.46618 | -0.44060 | 82 ft | 3 kts | 175° |
| 2026-05-08 21:22 | 51.46545 | -0.44056 | 82 ft | 16 kts | 179° |
| 2026-05-08 21:22 | 51.46429 | -0.44098 | 81 ft | 15 kts | 210° |
| 2026-05-08 21:22 | 51.46338 | -0.44181 | 88 ft | 15 kts | 209° |
| 2026-05-08 21:23 | 51.46247 | -0.44247 | 87 ft | 14 kts | 204° |
| 2026-05-08 21:23 | 51.46196 | -0.44284 | 87 ft | 10 kts | 204° |
| 2026-05-08 21:23 | 51.46135 | -0.44326 | 87 ft | 10 kts | 202° |
| 2026-05-08 21:23 | 51.46124 | -0.44406 | 86 ft | 9 kts | 314° |
| 2026-05-08 21:24 | 51.46137 | -0.44437 | 86 ft | 0 kts | 298° |